Time;durP1;ratioP1;P1;durP2;ratioP2;P2;SDS_P1;SDS_P2;PMS_P1;PMS_P2;Temp;Humidity;BMP_temperature;BMP_pressure;BME280_temperature;BME280_humidity;BME280_pressure;Samples;Min_cycle;Max_cycle;Signal;HPM_P1;HPM_P2
2022/03/29 00:00:10;;;;;;;13.43;10.40;;;;;;;;;;5069271;28;24421;-52
2022/03/29 00:02:35;;;;;;;16.08;11.15;;;;;;;;;;5068546;28;24454;-52
2022/03/29 00:05:04;;;;;;;16.05;10.80;;;;;;;;;;5068240;28;24446;-52
2022/03/29 00:07:30;;;;;;;16.83;11.23;;;;;;;;;;5067509;28;24419;-52
2022/03/29 00:09:55;;;;;;;15.20;10.57;;;;;;;;;;5068312;28;24421;-53
2022/03/29 00:12:20;;;;;;;13.90;10.10;;;;;;;;;;5073166;28;24444;-53
2022/03/29 00:14:45;;;;;;;13.43;9.95;;;;;;;;;;5064188;28;24431;-51
2022/03/29 00:17:10;;;;;;;13.15;9.75;;;;;;;;;;5066260;28;25002;-51
2022/03/29 00:19:35;;;;;;;13.52;10.00;;;;;;;;;;5064919;28;24515;-52
2022/03/29 00:22:01;;;;;;;14.30;9.83;;;;;;;;;;5065376;28;24466;-51
2022/03/29 00:24:26;;;;;;;13.80;10.20;;;;;;;;;;5069943;28;24769;-52
2022/03/29 00:26:51;;;;;;;13.23;9.45;;;;;;;;;;5073327;28;24418;-53
2022/03/29 00:29:16;;;;;;;13.55;9.80;;;;;;;;;;5076571;28;24488;-52
2022/03/29 00:31:42;;;;;;;14.20;9.87;;;;;;;;;;5074969;28;24521;-51
2022/03/29 00:34:07;;;;;;;13.80;11.00;;;;;;;;;;5064684;28;24423;-53
2022/03/29 00:36:32;;;;;;;12.53;10.17;;;;;;;;;;5065707;28;24488;-52
2022/03/29 00:38:57;;;;;;;13.98;10.75;;;;;;;;;;5074661;28;24418;-51
2022/03/29 00:41:23;;;;;;;14.37;10.57;;;;;;;;;;5066183;28;24522;-51
2022/03/29 00:43:48;;;;;;;15.60;11.50;;;;;;;;;;5064649;28;24462;-50
2022/03/29 00:46:13;;;;;;;17.20;11.93;;;;;;;;;;5066912;28;24885;-52
2022/03/29 00:48:38;;;;;;;15.05;11.70;;;;;;;;;;5066592;28;24414;-50
2022/03/29 00:51:04;;;;;;;15.60;11.97;;;;;;;;;;5072031;28;24430;-51
2022/03/29 00:53:29;;;;;;;17.88;12.15;;;;;;;;;;5071620;28;24415;-51
2022/03/29 00:55:55;;;;;;;16.67;11.57;;;;;;;;;;5083283;28;24437;-51
2022/03/29 00:58:20;;;;;;;16.63;12.05;;;;;;;;;;5069065;28;24422;-51
2022/03/29 01:00:47;;;;;;;15.47;11.10;;;;;;;;;;5066716;28;24560;-52
2022/03/29 01:03:12;;;;;;;14.23;10.75;;;;;;;;;;5072938;28;24940;-52
2022/03/29 01:05:37;;;;;;;15.20;11.47;;;;;;;;;;5069779;28;24441;-52
2022/03/29 01:08:04;;;;;;;14.10;11.30;;;;;;;;;;5071754;28;25035;-52
2022/03/29 01:10:29;;;;;;;14.60;11.27;;;;;;;;;;5075655;28;24575;-51
2022/03/29 01:12:55;;;;;;;14.93;11.17;;;;;;;;;;5072675;28;24448;-52
2022/03/29 01:15:22;;;;;;;13.55;10.70;;;;;;;;;;5076769;28;24511;-52
2022/03/29 01:17:47;;;;;;;13.13;10.73;;;;;;;;;;5071106;28;25197;-52
2022/03/29 01:20:16;;;;;;;14.60;10.37;;;;;;;;;;5065298;28;24419;-52
2022/03/29 01:22:44;;;;;;;14.20;10.60;;;;;;;;;;5072497;28;24862;-53
2022/03/29 01:25:09;;;;;;;13.77;10.50;;;;;;;;;;5072529;28;25048;-52
2022/03/29 01:27:35;;;;;;;13.48;10.27;;;;;;;;;;5066365;28;24439;-52
2022/03/29 01:30:01;;;;;;;13.85;9.82;;;;;;;;;;5077968;28;24509;-52
2022/03/29 01:32:29;;;;;;;14.07;10.50;;;;;;;;;;5071217;28;24836;-52
2022/03/29 01:34:55;;;;;;;13.80;10.63;;;;;;;;;;5065066;28;24964;-52
2022/03/29 01:37:20;;;;;;;14.32;10.80;;;;;;;;;;5066073;28;24440;-52
2022/03/29 01:39:46;;;;;;;12.70;10.15;;;;;;;;;;5070001;28;25028;-52
2022/03/29 01:42:11;;;;;;;15.10;10.73;;;;;;;;;;5064330;28;24541;-52
2022/03/29 01:44:37;;;;;;;14.47;10.83;;;;;;;;;;5071938;28;24422;-51
2022/03/29 01:47:02;;;;;;;13.47;10.63;;;;;;;;;;5062972;28;25025;-51
2022/03/29 01:49:27;;;;;;;15.80;11.27;;;;;;;;;;5064783;28;24458;-52
2022/03/29 01:51:53;;;;;;;13.80;9.93;;;;;;;;;;5067728;28;24414;-51
2022/03/29 01:54:18;;;;;;;13.60;10.45;;;;;;;;;;5074802;28;24891;-51
2022/03/29 01:56:43;;;;;;;15.03;10.20;;;;;;;;;;5078921;28;24426;-52
2022/03/29 01:59:11;;;;;;;14.57;10.93;;;;;;;;;;5078413;28;24479;-52
2022/03/29 02:01:40;;;;;;;14.20;10.63;;;;;;;;;;5081787;28;24419;-52
2022/03/29 02:04:05;;;;;;;13.95;10.60;;;;;;;;;;5072437;28;24982;-51
2022/03/29 02:06:30;;;;;;;12.75;10.43;;;;;;;;;;5068598;28;24411;-51
2022/03/29 02:08:59;;;;;;;15.55;10.88;;;;;;;;;;5072026;28;25009;-52
2022/03/29 02:11:24;;;;;;;15.45;11.40;;;;;;;;;;5079430;28;24976;-52
2022/03/29 02:13:49;;;;;;;14.87;11.00;;;;;;;;;;5067757;28;24414;-51
2022/03/29 02:16:14;;;;;;;15.13;12.03;;;;;;;;;;5075914;28;24959;-51
2022/03/29 02:18:39;;;;;;;15.40;11.40;;;;;;;;;;5069141;28;24422;-52
2022/03/29 02:21:04;;;;;;;15.68;11.32;;;;;;;;;;5069081;28;24406;-52
2022/03/29 02:23:30;;;;;;;13.98;11.35;;;;;;;;;;5068970;28;24510;-52
2022/03/29 02:25:55;;;;;;;15.13;11.10;;;;;;;;;;5072677;28;24768;-52
2022/03/29 02:28:20;;;;;;;15.90;11.27;;;;;;;;;;5078679;28;24483;-51
2022/03/29 02:30:46;;;;;;;13.53;11.10;;;;;;;;;;5081860;28;24423;-51
2022/03/29 02:33:11;;;;;;;15.73;12.00;;;;;;;;;;5082055;28;24940;-51
2022/03/29 02:35:36;;;;;;;15.70;12.00;;;;;;;;;;5068802;28;24453;-51
2022/03/29 02:38:01;;;;;;;16.63;12.37;;;;;;;;;;5068779;28;24497;-52
2022/03/29 02:40:27;;;;;;;14.50;11.57;;;;;;;;;;5074655;28;24518;-51
2022/03/29 02:42:53;;;;;;;18.00;13.10;;;;;;;;;;5075938;28;24501;-51
2022/03/29 02:45:19;;;;;;;16.75;12.90;;;;;;;;;;5079080;28;24422;-51
2022/03/29 02:47:46;;;;;;;18.33;12.50;;;;;;;;;;5068917;28;24426;-52
2022/03/29 02:50:12;;;;;;;16.38;12.70;;;;;;;;;;5068648;28;25017;-52
2022/03/29 02:52:44;;;;;;;15.88;12.30;;;;;;;;;;5071885;28;24482;-52
2022/03/29 02:55:10;;;;;;;19.23;13.55;;;;;;;;;;5083982;28;24423;-51
2022/03/29 02:57:35;;;;;;;17.02;13.00;;;;;;;;;;5081409;28;24428;-52
2022/03/29 03:00:01;;;;;;;16.52;12.52;;;;;;;;;;5075253;28;24487;-52
2022/03/29 03:02:26;;;;;;;18.10;13.80;;;;;;;;;;5075780;28;24415;-52
2022/03/29 03:04:51;;;;;;;15.27;12.15;;;;;;;;;;5082510;28;25067;-52
2022/03/29 03:07:17;;;;;;;18.00;12.80;;;;;;;;;;5068738;28;24476;-52
2022/03/29 03:09:42;;;;;;;18.03;13.30;;;;;;;;;;5066051;28;24473;-52
2022/03/29 03:12:07;;;;;;;17.73;13.50;;;;;;;;;;5074392;28;24567;-52
2022/03/29 03:14:32;;;;;;;18.23;13.60;;;;;;;;;;5078903;28;24441;-51
2022/03/29 03:16:57;;;;;;;17.85;13.38;;;;;;;;;;5071003;28;24420;-51
2022/03/29 03:19:23;;;;;;;17.35;13.32;;;;;;;;;;5067415;28;24443;-52
2022/03/29 03:21:48;;;;;;;17.17;13.40;;;;;;;;;;5067623;28;25010;-52
2022/03/29 03:24:13;;;;;;;18.63;13.80;;;;;;;;;;5070514;28;24418;-51
2022/03/29 03:26:38;;;;;;;16.00;12.80;;;;;;;;;;5073172;28;24955;-50
2022/03/29 03:29:04;;;;;;;16.83;13.50;;;;;;;;;;5072247;28;24430;-50
2022/03/29 03:31:29;;;;;;;17.60;13.27;;;;;;;;;;5076793;28;24475;-52
2022/03/29 03:33:54;;;;;;;21.10;15.30;;;;;;;;;;5081832;28;25207;-51
2022/03/29 03:36:19;;;;;;;19.35;14.30;;;;;;;;;;5076733;28;25070;-52
2022/03/29 03:38:44;;;;;;;19.13;14.83;;;;;;;;;;5069959;28;24508;-52
2022/03/29 03:41:09;;;;;;;19.67;14.73;;;;;;;;;;5072265;28;24449;-51
2022/03/29 03:43:35;;;;;;;20.25;14.15;;;;;;;;;;5073258;28;24403;-52
2022/03/29 03:46:00;;;;;;;19.88;14.85;;;;;;;;;;5072192;28;24510;-52
2022/03/29 03:48:25;;;;;;;20.93;15.87;;;;;;;;;;5073975;28;24824;-52
2022/03/29 03:50:51;;;;;;;19.33;14.63;;;;;;;;;;5086869;28;24394;-52
2022/03/29 03:53:16;;;;;;;20.70;15.20;;;;;;;;;;5075772;28;24422;-51
2022/03/29 03:55:41;;;;;;;19.80;15.50;;;;;;;;;;5080128;28;24420;-51
2022/03/29 03:58:06;;;;;;;21.60;16.50;;;;;;;;;;5081021;28;24424;-52
2022/03/29 04:00:31;;;;;;;21.13;16.77;;;;;;;;;;5065753;28;24417;-51
2022/03/29 04:02:57;;;;;;;21.60;16.50;;;;;;;;;;5066497;28;24786;-51
2022/03/29 04:05:22;;;;;;;21.10;16.70;;;;;;;;;;5066551;28;24614;-51
2022/03/29 04:07:47;;;;;;;23.90;17.17;;;;;;;;;;5070386;28;24458;-51
2022/03/29 04:10:13;;;;;;;21.53;16.77;;;;;;;;;;5069289;28;25212;-52
2022/03/29 04:12:38;;;;;;;23.60;18.20;;;;;;;;;;5078966;28;25224;-52
2022/03/29 04:15:03;;;;;;;19.50;15.53;;;;;;;;;;5065234;28;24430;-52
2022/03/29 04:17:28;;;;;;;20.38;16.40;;;;;;;;;;5066786;28;25240;-52
2022/03/29 04:19:55;;;;;;;22.17;16.27;;;;;;;;;;5067357;28;24506;-51
2022/03/29 04:22:20;;;;;;;20.83;15.97;;;;;;;;;;5073635;28;24460;-52
2022/03/29 04:24:45;;;;;;;22.67;15.43;;;;;;;;;;5064979;28;24430;-52
2022/03/29 04:27:10;;;;;;;24.03;17.43;;;;;;;;;;5070030;28;24509;-51
2022/03/29 04:29:35;;;;;;;22.77;17.20;;;;;;;;;;5072105;28;24514;-52
2022/03/29 04:32:01;;;;;;;20.95;16.52;;;;;;;;;;5076746;28;24739;-52
2022/03/29 04:34:26;;;;;;;20.40;15.83;;;;;;;;;;5090591;28;24518;-53
2022/03/29 04:36:51;;;;;;;20.27;15.80;;;;;;;;;;5069357;28;24442;-52
2022/03/29 04:39:16;;;;;;;21.03;16.33;;;;;;;;;;5079373;28;24509;-52
2022/03/29 04:41:41;;;;;;;23.13;16.45;;;;;;;;;;5073519;28;24880;-53
2022/03/29 04:44:06;;;;;;;21.67;16.00;;;;;;;;;;5068812;28;24973;-53
2022/03/29 04:46:31;;;;;;;21.77;16.80;;;;;;;;;;5077005;28;24428;-52
2022/03/29 04:48:57;;;;;;;20.90;16.55;;;;;;;;;;5063506;28;24411;-52
2022/03/29 04:51:22;;;;;;;22.67;16.83;;;;;;;;;;5071877;28;24426;-52
2022/03/29 04:53:47;;;;;;;21.08;16.20;;;;;;;;;;5077776;28;25077;-52
2022/03/29 04:56:12;;;;;;;20.63;15.83;;;;;;;;;;5075811;28;24430;-52
2022/03/29 04:58:37;;;;;;;20.13;16.40;;;;;;;;;;5077576;28;24417;-52
2022/03/29 05:01:04;;;;;;;22.90;17.03;;;;;;;;;;5074766;28;24500;-52
2022/03/29 05:03:31;;;;;;;24.15;16.08;;;;;;;;;;5061321;28;24415;-53
2022/03/29 05:05:56;;;;;;;21.02;16.70;;;;;;;;;;5065440;28;24543;-53
2022/03/29 05:08:21;;;;;;;21.25;16.30;;;;;;;;;;5068385;28;24438;-52
2022/03/29 05:10:47;;;;;;;23.63;17.70;;;;;;;;;;5072645;28;24431;-52
2022/03/29 05:13:14;;;;;;;21.63;17.80;;;;;;;;;;5066574;28;24453;-53
2022/03/29 05:15:39;;;;;;;22.73;17.45;;;;;;;;;;5065195;28;24453;-52
2022/03/29 05:18:04;;;;;;;24.15;17.40;;;;;;;;;;5078346;28;24932;-51
2022/03/29 05:20:29;;;;;;;23.20;17.73;;;;;;;;;;5068907;28;24917;-52
2022/03/29 05:22:57;;;;;;;23.00;16.60;;;;;;;;;;5064753;28;24778;-52
2022/03/29 05:25:24;;;;;;;22.05;16.13;;;;;;;;;;5081702;28;24428;-53
2022/03/29 05:27:53;;;;;;;21.75;15.93;;;;;;;;;;5068118;28;24864;-52
2022/03/29 05:30:19;;;;;;;21.52;16.80;;;;;;;;;;5070232;28;24390;-52
2022/03/29 05:32:44;;;;;;;22.30;17.38;;;;;;;;;;5071598;28;24781;-52
2022/03/29 05:35:10;;;;;;;23.53;17.50;;;;;;;;;;5088104;28;24444;-52
2022/03/29 05:37:36;;;;;;;20.77;16.43;;;;;;;;;;5090083;28;24398;-52
2022/03/29 05:40:02;;;;;;;21.30;16.90;;;;;;;;;;5090430;28;24481;-52
2022/03/29 05:42:28;;;;;;;22.17;17.10;;;;;;;;;;5088678;28;24397;-52
2022/03/29 05:44:53;;;;;;;21.15;16.75;;;;;;;;;;5088097;28;24983;-52
2022/03/29 05:50:02;;;;;;;21.83;17.17;;;;;;;;;;5086988;28;24532;-53
2022/03/29 05:52:28;;;;;;;23.25;18.15;;;;;;;;;;5073149;28;24472;-53
2022/03/29 05:54:53;;;;;;;22.63;17.05;;;;;;;;;;5074099;28;24525;-53
2022/03/29 05:57:19;;;;;;;21.70;17.27;;;;;;;;;;5070028;28;24510;-52
2022/03/29 05:59:45;;;;;;;22.57;16.77;;;;;;;;;;5075635;28;24409;-52
2022/03/29 06:02:10;;;;;;;24.30;18.15;;;;;;;;;;5082653;28;24984;-52
2022/03/29 06:04:35;;;;;;;21.23;16.73;;;;;;;;;;5082080;28;24492;-52
2022/03/29 06:07:01;;;;;;;25.00;18.00;;;;;;;;;;5086643;28;24428;-52
2022/03/29 06:09:26;;;;;;;22.55;17.83;;;;;;;;;;5074438;28;24483;-52
2022/03/29 06:11:52;;;;;;;22.05;17.73;;;;;;;;;;5075787;28;24413;-53
2022/03/29 06:14:17;;;;;;;23.17;17.27;;;;;;;;;;5089071;28;24433;-52
2022/03/29 06:16:43;;;;;;;22.37;17.80;;;;;;;;;;5074522;28;24812;-52
2022/03/29 06:19:09;;;;;;;23.08;17.42;;;;;;;;;;5087727;28;24979;-52
2022/03/29 06:21:36;;;;;;;24.55;17.88;;;;;;;;;;5081745;28;24428;-52
2022/03/29 06:24:02;;;;;;;24.33;18.90;;;;;;;;;;5077913;28;24592;-51
2022/03/29 06:26:27;;;;;;;23.13;17.63;;;;;;;;;;5074543;28;24419;-52
2022/03/29 06:28:53;;;;;;;22.80;18.33;;;;;;;;;;5069056;28;24726;-52
2022/03/29 06:31:19;;;;;;;23.35;18.38;;;;;;;;;;5069106;28;24470;-52
2022/03/29 06:33:44;;;;;;;24.05;18.17;;;;;;;;;;5068964;28;24832;-52
2022/03/29 06:36:09;;;;;;;21.23;17.17;;;;;;;;;;5067938;28;24458;-52
2022/03/29 06:38:34;;;;;;;21.55;17.70;;;;;;;;;;5068651;28;24398;-58
2022/03/29 06:40:59;;;;;;;24.05;17.77;;;;;;;;;;5068957;28;24445;-52
2022/03/29 06:43:25;;;;;;;21.70;17.60;;;;;;;;;;5068557;28;24467;-52
2022/03/29 06:45:50;;;;;;;22.20;17.40;;;;;;;;;;5076937;28;25011;-52
2022/03/29 06:48:15;;;;;;;24.93;17.90;;;;;;;;;;5089193;28;24919;-52
2022/03/29 06:50:41;;;;;;;24.10;19.05;;;;;;;;;;5088444;28;24971;-52
2022/03/29 06:53:06;;;;;;;23.20;18.60;;;;;;;;;;5088303;28;24418;-52
2022/03/29 06:55:31;;;;;;;28.98;21.05;;;;;;;;;;5086759;28;24425;-52
2022/03/29 06:57:56;;;;;;;26.17;19.93;;;;;;;;;;5086600;28;24414;-52
2022/03/29 07:00:22;;;;;;;28.03;20.63;;;;;;;;;;5083778;28;24505;-53
2022/03/29 07:02:48;;;;;;;28.10;20.87;;;;;;;;;;5086547;28;24879;-52
2022/03/29 07:05:14;;;;;;;30.33;22.20;;;;;;;;;;5088517;28;24410;-52
2022/03/29 07:07:39;;;;;;;28.55;21.90;;;;;;;;;;5086581;28;24452;-52
2022/03/29 07:12:53;;;;;;;31.42;20.92;;;;;;;;;;5088200;28;24754;-52
2022/03/29 07:15:18;;;;;;;34.73;23.60;;;;;;;;;;5088225;28;24504;-52
2022/03/29 07:17:44;;;;;;;32.80;23.13;;;;;;;;;;5086233;28;24460;-53
2022/03/29 07:20:09;;;;;;;31.42;21.17;;;;;;;;;;5087746;28;24443;-53
2022/03/29 07:22:35;;;;;;;37.03;23.20;;;;;;;;;;5066362;28;24941;-52
2022/03/29 07:25:00;;;;;;;33.47;22.60;;;;;;;;;;5067510;28;24652;-52
2022/03/29 07:27:26;;;;;;;35.15;22.60;;;;;;;;;;5067984;28;24956;-52
2022/03/29 07:29:52;;;;;;;35.42;23.60;;;;;;;;;;5087616;28;24398;-52
2022/03/29 07:32:18;;;;;;;37.80;24.05;;;;;;;;;;5066212;28;24821;-52
2022/03/29 07:34:43;;;;;;;34.35;23.35;;;;;;;;;;5066492;28;25026;-53
2022/03/29 07:37:08;;;;;;;34.20;22.00;;;;;;;;;;5066013;28;24789;-52
2022/03/29 07:39:33;;;;;;;33.53;23.05;;;;;;;;;;5080761;28;24547;-52
2022/03/29 07:41:59;;;;;;;32.10;22.90;;;;;;;;;;5085122;28;24495;-52
2022/03/29 07:44:24;;;;;;;30.53;22.63;;;;;;;;;;5087458;28;24405;-52
2022/03/29 07:46:50;;;;;;;28.83;21.52;;;;;;;;;;5064767;28;24410;-52
2022/03/29 07:49:15;;;;;;;29.33;22.00;;;;;;;;;;5066151;28;24403;-52
2022/03/29 07:51:41;;;;;;;28.70;22.63;;;;;;;;;;5068833;28;24414;-52
2022/03/29 07:54:06;;;;;;;30.90;23.05;;;;;;;;;;5084585;28;24440;-53
2022/03/29 07:56:32;;;;;;;32.00;22.23;;;;;;;;;;5067235;28;25065;-52
2022/03/29 07:58:57;;;;;;;31.88;22.92;;;;;;;;;;5084417;28;24379;-52
2022/03/29 08:01:22;;;;;;;29.43;22.53;;;;;;;;;;5086437;28;24709;-51
2022/03/29 08:03:48;;;;;;;28.63;22.10;;;;;;;;;;5087190;28;24921;-51
2022/03/29 08:06:13;;;;;;;28.33;22.00;;;;;;;;;;5087166;28;24436;-51
2022/03/29 08:08:40;;;;;;;27.90;20.97;;;;;;;;;;5085552;28;24403;-51
2022/03/29 08:11:07;;;;;;;30.98;23.08;;;;;;;;;;5087099;28;24880;-51
2022/03/29 08:13:32;;;;;;;31.33;23.10;;;;;;;;;;5087199;28;24424;-51
2022/03/29 08:15:58;;;;;;;32.58;22.60;;;;;;;;;;5086865;28;24464;-51
2022/03/29 08:18:24;;;;;;;30.67;22.63;;;;;;;;;;5067066;28;24421;-52
2022/03/29 08:20:49;;;;;;;30.55;22.17;;;;;;;;;;5066959;28;24477;-51
2022/03/29 08:23:14;;;;;;;26.83;21.80;;;;;;;;;;5066761;28;24496;-52
2022/03/29 08:25:40;;;;;;;28.27;22.50;;;;;;;;;;5082846;28;24484;-51
2022/03/29 08:28:06;;;;;;;31.60;23.92;;;;;;;;;;5085043;28;24776;-51
2022/03/29 08:30:31;;;;;;;30.10;23.25;;;;;;;;;;5087093;28;25003;-51
2022/03/29 08:32:57;;;;;;;32.53;25.02;;;;;;;;;;5086538;28;24393;-51
2022/03/29 08:35:23;;;;;;;30.08;24.00;;;;;;;;;;5085557;28;24426;-52
2022/03/29 08:37:49;;;;;;;33.00;24.25;;;;;;;;;;5069918;28;24945;-51
2022/03/29 08:40:16;;;;;;;29.07;22.77;;;;;;;;;;5066146;28;24398;-51
2022/03/29 08:42:44;;;;;;;29.85;23.85;;;;;;;;;;5066810;28;24394;-51
2022/03/29 08:45:11;;;;;;;30.33;23.50;;;;;;;;;;5066379;28;24402;-51
2022/03/29 08:47:36;;;;;;;30.65;24.42;;;;;;;;;;5076829;28;24426;-51
2022/03/29 08:50:03;;;;;;;32.13;24.50;;;;;;;;;;5086703;28;24455;-52
2022/03/29 08:52:28;;;;;;;29.83;24.02;;;;;;;;;;5086786;28;24403;-51
2022/03/29 08:54:54;;;;;;;30.60;23.95;;;;;;;;;;5086336;28;24433;-51
2022/03/29 08:57:20;;;;;;;30.30;24.50;;;;;;;;;;5084608;28;25269;-51
2022/03/29 08:59:45;;;;;;;30.08;22.38;;;;;;;;;;5085743;28;24596;-51
2022/03/29 09:02:11;;;;;;;32.00;22.93;;;;;;;;;;5086017;28;24524;-52
2022/03/29 09:04:37;;;;;;;31.02;23.35;;;;;;;;;;5086811;28;24717;-51
2022/03/29 09:07:02;;;;;;;31.50;24.20;;;;;;;;;;5086149;28;24943;-51
2022/03/29 09:09:29;;;;;;;30.47;23.87;;;;;;;;;;5084963;28;24555;-51
2022/03/29 09:11:56;;;;;;;31.37;23.80;;;;;;;;;;5086437;28;24397;-52
2022/03/29 09:14:22;;;;;;;29.55;23.73;;;;;;;;;;5086253;28;24496;-51
2022/03/29 09:16:47;;;;;;;30.33;24.93;;;;;;;;;;5086338;28;24437;-51
2022/03/29 09:19:12;;;;;;;31.83;24.13;;;;;;;;;;5084361;28;24417;-52
2022/03/29 09:21:41;;;;;;;34.67;24.67;;;;;;;;;;5086174;28;24399;-51
2022/03/29 09:24:08;;;;;;;30.35;23.73;;;;;;;;;;5086683;28;24820;-51
2022/03/29 09:26:33;;;;;;;29.50;23.45;;;;;;;;;;5069430;28;25077;-52
2022/03/29 09:28:59;;;;;;;29.70;24.20;;;;;;;;;;5065818;28;24427;-52
2022/03/29 09:31:27;;;;;;;30.02;23.70;;;;;;;;;;5066064;28;24383;-52
2022/03/29 09:34:09;;;;;;;28.58;23.48;;;;;;;;;;5066202;28;24383;-52
2022/03/29 09:36:42;;;;;;;27.05;21.98;;;;;;;;;;5076658;28;24418;-51
2022/03/29 09:39:07;;;;;;;31.13;24.63;;;;;;;;;;5086256;28;24489;-52
2022/03/29 09:41:32;;;;;;;31.60;24.63;;;;;;;;;;5085877;28;24473;-52
2022/03/29 09:44:02;;;;;;;28.47;24.37;;;;;;;;;;5086192;28;24395;-52
2022/03/29 09:46:28;;;;;;;30.05;23.52;;;;;;;;;;5084239;28;24419;-52
2022/03/29 09:48:58;;;;;;;32.87;25.70;;;;;;;;;;5085831;28;24962;-52
2022/03/29 09:51:26;;;;;;;29.88;23.10;;;;;;;;;;5083208;28;24497;-52
2022/03/29 09:53:52;;;;;;;30.50;24.90;;;;;;;;;;5085774;28;24417;-56
2022/03/29 09:56:20;;;;;;;31.50;24.63;;;;;;;;;;5084949;28;25057;-52
2022/03/29 09:58:46;;;;;;;31.15;23.15;;;;;;;;;;5085554;28;24418;-52
2022/03/29 10:01:21;;;;;;;40.63;25.70;;;;;;;;;;5065573;28;24947;-52
2022/03/29 10:03:47;;;;;;;30.08;23.55;;;;;;;;;;5065586;28;24460;-52
2022/03/29 10:06:12;;;;;;;41.30;24.88;;;;;;;;;;5062667;28;24419;-52
2022/03/29 10:11:22;;;;;;;26.63;22.10;;;;;;;;;;5066025;28;24402;-52
2022/03/29 10:13:48;;;;;;;33.03;22.90;;;;;;;;;;5069400;28;24806;-52
2022/03/29 10:16:14;;;;;;;52.80;27.85;;;;;;;;;;5069146;28;24514;-53
2022/03/29 10:18:40;;;;;;;29.65;22.85;;;;;;;;;;5077396;28;24462;-52
2022/03/29 10:21:06;;;;;;;27.50;22.33;;;;;;;;;;5085717;28;24442;-52
2022/03/29 10:23:31;;;;;;;59.07;26.77;;;;;;;;;;5082542;28;24464;-52
2022/03/29 10:25:57;;;;;;;31.13;23.37;;;;;;;;;;5067698;28;24402;-52
2022/03/29 10:28:26;;;;;;;32.90;23.77;;;;;;;;;;5070666;28;25025;-53
2022/03/29 10:30:51;;;;;;;27.30;21.85;;;;;;;;;;5087755;28;24459;-52
2022/03/29 10:33:19;;;;;;;33.17;24.42;;;;;;;;;;5079521;28;24431;-52
2022/03/29 10:36:03;;;;;;;32.97;24.25;;;;;;;;;;5068482;28;24494;-53
2022/03/29 10:38:46;;;;;;;28.67;22.65;;;;;;;;;;5068007;28;24427;-52
2022/03/29 10:41:26;;;;;;;30.20;23.92;;;;;;;;;;5068864;28;24528;-52
2022/03/29 10:43:52;;;;;;;28.50;22.70;;;;;;;;;;5067569;28;24434;-52
2022/03/29 10:46:24;;;;;;;28.95;21.92;;;;;;;;;;5068235;28;24773;-52
2022/03/29 10:49:09;;;;;;;30.65;22.25;;;;;;;;;;5080176;28;24437;-52
2022/03/29 10:51:34;;;;;;;35.70;23.95;;;;;;;;;;5088670;28;24391;-53
2022/03/29 10:54:19;;;;;;;28.60;21.27;;;;;;;;;;5070209;28;24446;-52
2022/03/29 10:56:54;;;;;;;25.75;21.63;;;;;;;;;;5083233;28;24484;-52
2022/03/29 10:59:19;;;;;;;28.45;22.75;;;;;;;;;;5064640;28;24421;-54
2022/03/29 11:01:45;;;;;;;32.43;23.37;;;;;;;;;;5067832;28;24399;-52
2022/03/29 11:04:14;;;;;;;26.87;22.20;;;;;;;;;;5066455;28;24398;-52
2022/03/29 11:06:59;;;;;;;23.75;20.40;;;;;;;;;;5067969;28;24762;-52
2022/03/29 11:09:25;;;;;;;26.15;21.30;;;;;;;;;;5067408;28;24438;-52
2022/03/29 11:11:51;;;;;;;24.88;21.27;;;;;;;;;;5067717;28;24837;-52
2022/03/29 11:14:35;;;;;;;26.20;21.67;;;;;;;;;;5084961;28;25032;-52
2022/03/29 11:17:01;;;;;;;25.20;21.73;;;;;;;;;;5078237;28;24471;-52
2022/03/29 11:19:46;;;;;;;26.05;21.88;;;;;;;;;;5086338;28;24394;-53
2022/03/29 11:22:29;;;;;;;27.52;21.20;;;;;;;;;;5077910;28;25222;-52
2022/03/29 11:25:03;;;;;;;26.80;21.80;;;;;;;;;;5086149;28;24422;-52
2022/03/29 11:27:31;;;;;;;26.92;20.98;;;;;;;;;;5074703;28;25040;-52
2022/03/29 11:29:56;;;;;;;24.40;20.75;;;;;;;;;;5067014;28;24513;-52
2022/03/29 11:32:22;;;;;;;26.05;21.17;;;;;;;;;;5066682;28;24422;-52
2022/03/29 11:34:51;;;;;;;25.90;20.23;;;;;;;;;;5067867;28;24518;-53
2022/03/29 11:37:37;;;;;;;26.83;20.92;;;;;;;;;;5066309;28;21411;-52
2022/03/29 11:40:03;;;;;;;26.90;21.00;;;;;;;;;;5064051;28;24481;-52
2022/03/29 11:42:47;;;;;;;30.45;21.30;;;;;;;;;;5066259;28;24592;-51
2022/03/29 11:45:13;;;;;;;26.65;21.23;;;;;;;;;;5081905;28;24425;-52
2022/03/29 11:47:38;;;;;;;27.60;21.00;;;;;;;;;;5079677;28;24418;-52
2022/03/29 11:50:04;;;;;;;24.57;20.20;;;;;;;;;;5087358;28;24399;-52
2022/03/29 11:52:33;;;;;;;27.40;21.27;;;;;;;;;;5066538;28;24423;-53
2022/03/29 11:54:58;;;;;;;25.87;20.93;;;;;;;;;;5067545;28;24435;-53
2022/03/29 11:57:24;;;;;;;25.53;21.37;;;;;;;;;;5067403;28;24611;-53
2022/03/29 11:59:51;;;;;;;25.77;22.10;;;;;;;;;;5067278;28;24408;-53
2022/03/29 12:02:18;;;;;;;25.65;21.35;;;;;;;;;;5067208;28;24456;-52
2022/03/29 12:04:43;;;;;;;25.48;20.88;;;;;;;;;;5079776;28;24498;-52
2022/03/29 12:07:08;;;;;;;26.80;20.60;;;;;;;;;;5087322;28;24433;-52
2022/03/29 12:09:34;;;;;;;25.67;21.50;;;;;;;;;;5086995;28;25226;-52
2022/03/29 12:12:01;;;;;;;25.83;21.43;;;;;;;;;;5087561;28;24383;-53
2022/03/29 12:14:27;;;;;;;26.52;21.20;;;;;;;;;;5069634;28;25052;-53
2022/03/29 12:16:54;;;;;;;24.60;21.00;;;;;;;;;;5067080;28;24470;-53
2022/03/29 12:19:25;;;;;;;25.23;21.10;;;;;;;;;;5066596;28;24421;-53
2022/03/29 12:21:51;;;;;;;24.02;20.45;;;;;;;;;;5066791;28;25002;-52
2022/03/29 12:24:17;;;;;;;24.33;20.40;;;;;;;;;;5066303;28;24398;-53
2022/03/29 12:26:44;;;;;;;27.42;21.02;;;;;;;;;;5066926;28;24765;-52
2022/03/29 12:29:14;;;;;;;24.90;20.50;;;;;;;;;;5075447;28;24429;-53
2022/03/29 12:31:39;;;;;;;27.02;20.98;;;;;;;;;;5086755;28;24895;-53
2022/03/29 12:34:05;;;;;;;28.60;22.43;;;;;;;;;;5085944;28;24413;-53
2022/03/29 12:36:30;;;;;;;24.33;20.87;;;;;;;;;;5086192;28;24762;-53
2022/03/29 12:38:59;;;;;;;28.50;21.75;;;;;;;;;;5085004;28;24422;-53
2022/03/29 12:41:46;;;;;;;28.65;22.35;;;;;;;;;;5084079;28;24479;-53
2022/03/29 12:44:12;;;;;;;28.58;22.70;;;;;;;;;;5081651;28;25225;-53
2022/03/29 12:46:39;;;;;;;25.70;21.58;;;;;;;;;;5085180;28;24418;-53
2022/03/29 12:49:04;;;;;;;26.33;22.15;;;;;;;;;;5086222;28;24405;-53
2022/03/29 12:51:33;;;;;;;24.97;20.10;;;;;;;;;;5084779;28;24430;-53
2022/03/29 12:53:59;;;;;;;25.67;20.88;;;;;;;;;;5086842;28;24405;-53
2022/03/29 12:56:33;;;;;;;28.50;23.70;;;;;;;;;;5086458;28;24472;-53
2022/03/29 12:58:58;;;;;;;25.88;21.38;;;;;;;;;;5086421;28;24491;-53
2022/03/29 13:01:28;;;;;;;28.17;21.77;;;;;;;;;;5083890;28;24442;-53
2022/03/29 13:03:53;;;;;;;29.55;24.17;;;;;;;;;;5086283;28;24396;-53
2022/03/29 13:06:18;;;;;;;29.55;23.08;;;;;;;;;;5086424;28;24509;-52
2022/03/29 13:08:43;;;;;;;26.55;21.00;;;;;;;;;;5084491;28;24402;-53
2022/03/29 13:11:19;;;;;;;25.10;21.52;;;;;;;;;;5084859;28;25185;-52
2022/03/29 13:14:00;;;;;;;28.45;21.70;;;;;;;;;;5086234;28;24398;-52
2022/03/29 13:16:28;;;;;;;24.15;20.50;;;;;;;;;;5086111;28;24410;-51
2022/03/29 13:18:53;;;;;;;27.47;22.53;;;;;;;;;;5086353;28;24476;-52
2022/03/29 13:21:19;;;;;;;33.23;23.43;;;;;;;;;;5080759;28;24431;-51
2022/03/29 13:24:08;;;;;;;27.00;22.52;;;;;;;;;;5066277;28;24399;-51
2022/03/29 13:26:35;;;;;;;28.05;21.90;;;;;;;;;;5059795;28;24954;-50
2022/03/29 13:29:00;;;;;;;24.58;20.77;;;;;;;;;;5063924;28;24804;-51
2022/03/29 13:31:27;;;;;;;28.13;21.33;;;;;;;;;;5066002;28;24475;-52
2022/03/29 13:33:53;;;;;;;25.55;21.77;;;;;;;;;;5065313;28;24513;-52
2022/03/29 13:36:21;;;;;;;32.83;22.38;;;;;;;;;;5066123;28;24415;-51
2022/03/29 13:38:48;;;;;;;31.60;22.42;;;;;;;;;;5079455;28;24410;-52
2022/03/29 13:41:13;;;;;;;34.90;22.80;;;;;;;;;;5085873;28;24967;-52
2022/03/29 13:43:39;;;;;;;28.17;22.80;;;;;;;;;;5086064;28;24497;-52
2022/03/29 13:46:05;;;;;;;32.90;23.87;;;;;;;;;;5087621;28;24493;-51
2022/03/29 13:48:31;;;;;;;26.95;20.20;;;;;;;;;;5079946;28;24422;-51
2022/03/29 13:50:56;;;;;;;23.67;20.67;;;;;;;;;;5069034;28;24435;-51
2022/03/29 13:53:21;;;;;;;26.37;22.00;;;;;;;;;;5067148;28;24492;-52
2022/03/29 13:55:47;;;;;;;28.23;22.90;;;;;;;;;;5071174;28;24442;-52
2022/03/29 13:58:12;;;;;;;23.83;20.50;;;;;;;;;;5067546;28;24386;-51
2022/03/29 14:00:38;;;;;;;27.30;22.20;;;;;;;;;;5068058;28;24464;-52
2022/03/29 14:03:03;;;;;;;23.47;20.10;;;;;;;;;;5067912;28;24921;-52
2022/03/29 14:05:29;;;;;;;30.17;23.33;;;;;;;;;;5069015;28;24418;-52
2022/03/29 14:07:55;;;;;;;25.98;22.00;;;;;;;;;;5069321;28;24486;-51
2022/03/29 14:10:20;;;;;;;25.30;21.30;;;;;;;;;;5068515;28;25025;-52
2022/03/29 14:12:45;;;;;;;28.10;22.47;;;;;;;;;;5067420;28;24403;-52
2022/03/29 14:15:10;;;;;;;25.97;21.57;;;;;;;;;;5068522;28;24487;-53
2022/03/29 14:17:36;;;;;;;26.10;22.07;;;;;;;;;;5067239;28;24410;-51
2022/03/29 14:20:01;;;;;;;26.10;22.90;;;;;;;;;;5068122;28;24495;-52